sensor_id;sensor_type;location;lat;lon;timestamp;temperature;humidity
30520;DHT22;17300;50.374;8.006;2023-08-17T00:01:29;23.70;68.70
30520;DHT22;17300;50.374;8.006;2023-08-17T00:03:55;23.70;68.70
30520;DHT22;17300;50.374;8.006;2023-08-17T00:06:22;23.70;68.70
30520;DHT22;17300;50.374;8.006;2023-08-17T00:08:49;23.70;68.60
30520;DHT22;17300;50.374;8.006;2023-08-17T00:11:15;23.70;68.60
30520;DHT22;17300;50.374;8.006;2023-08-17T00:13:42;23.70;68.60
30520;DHT22;17300;50.374;8.006;2023-08-17T00:16:10;23.70;68.60
30520;DHT22;17300;50.374;8.006;2023-08-17T00:18:37;23.70;68.60
30520;DHT22;17300;50.374;8.006;2023-08-17T00:21:03;23.70;68.70
30520;DHT22;17300;50.374;8.006;2023-08-17T00:23:30;23.70;68.80
30520;DHT22;17300;50.374;8.006;2023-08-17T00:25:57;23.70;68.90
30520;DHT22;17300;50.374;8.006;2023-08-17T00:28:23;23.70;68.90
30520;DHT22;17300;50.374;8.006;2023-08-17T00:30:50;23.70;69.10
30520;DHT22;17300;50.374;8.006;2023-08-17T00:33:18;23.70;69.20
30520;DHT22;17300;50.374;8.006;2023-08-17T00:35:45;23.70;69.30
30520;DHT22;17300;50.374;8.006;2023-08-17T00:38:12;23.70;69.30
30520;DHT22;17300;50.374;8.006;2023-08-17T00:40:39;23.70;69.40
30520;DHT22;17300;50.374;8.006;2023-08-17T00:43:05;23.70;69.50
30520;DHT22;17300;50.374;8.006;2023-08-17T00:45:32;23.80;69.60
30520;DHT22;17300;50.374;8.006;2023-08-17T00:47:58;23.80;69.40
30520;DHT22;17300;50.374;8.006;2023-08-17T00:50:27;23.80;69.30
30520;DHT22;17300;50.374;8.006;2023-08-17T00:52:56;23.80;69.40
30520;DHT22;17300;50.374;8.006;2023-08-17T00:55:22;23.80;69.50
30520;DHT22;17300;50.374;8.006;2023-08-17T00:57:50;23.90;69.70
30520;DHT22;17300;50.374;8.006;2023-08-17T01:00:18;23.90;69.40
30520;DHT22;17300;50.374;8.006;2023-08-17T01:02:45;23.90;69.20
30520;DHT22;17300;50.374;8.006;2023-08-17T01:05:12;23.90;69.00
30520;DHT22;17300;50.374;8.006;2023-08-17T01:07:40;23.90;68.90
30520;DHT22;17300;50.374;8.006;2023-08-17T01:10:08;23.90;69.00
30520;DHT22;17300;50.374;8.006;2023-08-17T01:12:41;23.90;69.20
30520;DHT22;17300;50.374;8.006;2023-08-17T01:15:12;23.90;69.40
30520;DHT22;17300;50.374;8.006;2023-08-17T01:17:43;23.90;70.00
30520;DHT22;17300;50.374;8.006;2023-08-17T01:20:14;23.90;69.20
30520;DHT22;17300;50.374;8.006;2023-08-17T01:22:45;23.90;69.20
30520;DHT22;17300;50.374;8.006;2023-08-17T01:25:15;23.90;69.20
30520;DHT22;17300;50.374;8.006;2023-08-17T01:27:43;23.90;69.10
30520;DHT22;17300;50.374;8.006;2023-08-17T01:30:11;23.90;69.20
30520;DHT22;17300;50.374;8.006;2023-08-17T01:32:43;23.80;69.20
30520;DHT22;17300;50.374;8.006;2023-08-17T01:35:16;23.90;69.50
30520;DHT22;17300;50.374;8.006;2023-08-17T01:37:47;23.90;69.50
30520;DHT22;17300;50.374;8.006;2023-08-17T01:40:18;23.90;69.30
30520;DHT22;17300;50.374;8.006;2023-08-17T01:42:46;23.90;69.20
30520;DHT22;17300;50.374;8.006;2023-08-17T01:45:13;23.90;69.20
30520;DHT22;17300;50.374;8.006;2023-08-17T01:47:40;23.90;69.20
30520;DHT22;17300;50.374;8.006;2023-08-17T01:50:07;23.90;69.40
30520;DHT22;17300;50.374;8.006;2023-08-17T01:52:34;23.90;69.70
30520;DHT22;17300;50.374;8.006;2023-08-17T01:55:00;23.90;69.80
30520;DHT22;17300;50.374;8.006;2023-08-17T01:57:28;23.90;69.80
30520;DHT22;17300;50.374;8.006;2023-08-17T01:59:55;23.90;69.70
30520;DHT22;17300;50.374;8.006;2023-08-17T02:02:22;23.90;69.50
30520;DHT22;17300;50.374;8.006;2023-08-17T02:04:49;23.90;69.30
30520;DHT22;17300;50.374;8.006;2023-08-17T02:07:15;23.90;69.20
30520;DHT22;17300;50.374;8.006;2023-08-17T02:09:42;23.90;69.20
30520;DHT22;17300;50.374;8.006;2023-08-17T02:12:09;23.90;69.20
30520;DHT22;17300;50.374;8.006;2023-08-17T02:14:37;23.90;69.10
30520;DHT22;17300;50.374;8.006;2023-08-17T02:17:03;23.90;69.20
30520;DHT22;17300;50.374;8.006;2023-08-17T02:19:31;23.90;69.20
30520;DHT22;17300;50.374;8.006;2023-08-17T02:21:58;23.90;69.10
30520;DHT22;17300;50.374;8.006;2023-08-17T02:24:25;23.90;69.00
30520;DHT22;17300;50.374;8.006;2023-08-17T02:26:51;23.80;68.90
30520;DHT22;17300;50.374;8.006;2023-08-17T02:29:18;23.80;68.90
30520;DHT22;17300;50.374;8.006;2023-08-17T02:31:46;23.80;68.90
30520;DHT22;17300;50.374;8.006;2023-08-17T02:34:13;23.80;69.00
30520;DHT22;17300;50.374;8.006;2023-08-17T02:36:39;23.80;69.00
30520;DHT22;17300;50.374;8.006;2023-08-17T02:39:06;23.70;69.10
30520;DHT22;17300;50.374;8.006;2023-08-17T02:41:33;23.70;69.30
30520;DHT22;17300;50.374;8.006;2023-08-17T02:44:01;23.70;69.50
30520;DHT22;17300;50.374;8.006;2023-08-17T02:46:27;23.70;69.40
30520;DHT22;17300;50.374;8.006;2023-08-17T02:48:55;23.70;69.30
30520;DHT22;17300;50.374;8.006;2023-08-17T02:51:22;23.70;69.40
30520;DHT22;17300;50.374;8.006;2023-08-17T02:53:49;23.70;69.50
30520;DHT22;17300;50.374;8.006;2023-08-17T02:56:15;23.70;69.50
30520;DHT22;17300;50.374;8.006;2023-08-17T02:58:42;23.70;69.60
30520;DHT22;17300;50.374;8.006;2023-08-17T03:01:09;23.70;69.60
30520;DHT22;17300;50.374;8.006;2023-08-17T03:03:36;23.70;69.70
30520;DHT22;17300;50.374;8.006;2023-08-17T03:06:05;23.70;69.70
30520;DHT22;17300;50.374;8.006;2023-08-17T03:08:31;23.70;69.80
30520;DHT22;17300;50.374;8.006;2023-08-17T03:10:58;23.80;69.80
30520;DHT22;17300;50.374;8.006;2023-08-17T03:13:25;23.70;69.70
30520;DHT22;17300;50.374;8.006;2023-08-17T03:15:51;23.70;69.70
30520;DHT22;17300;50.374;8.006;2023-08-17T03:18:18;23.80;69.90
30520;DHT22;17300;50.374;8.006;2023-08-17T03:20:45;23.70;69.80
30520;DHT22;17300;50.374;8.006;2023-08-17T03:23:13;23.70;69.80
30520;DHT22;17300;50.374;8.006;2023-08-17T03:25:39;23.80;70.20
30520;DHT22;17300;50.374;8.006;2023-08-17T03:28:06;23.80;70.20
30520;DHT22;17300;50.374;8.006;2023-08-17T03:30:33;23.70;70.20
30520;DHT22;17300;50.374;8.006;2023-08-17T03:33:00;23.80;70.20
30520;DHT22;17300;50.374;8.006;2023-08-17T03:35:26;23.80;70.20
30520;DHT22;17300;50.374;8.006;2023-08-17T03:37:53;23.80;70.20
30520;DHT22;17300;50.374;8.006;2023-08-17T03:40:21;23.80;70.10
30520;DHT22;17300;50.374;8.006;2023-08-17T03:42:48;23.80;70.00
30520;DHT22;17300;50.374;8.006;2023-08-17T03:45:14;23.80;69.80
30520;DHT22;17300;50.374;8.006;2023-08-17T03:47:41;23.80;69.80
30520;DHT22;17300;50.374;8.006;2023-08-17T03:50:09;23.80;69.80
30520;DHT22;17300;50.374;8.006;2023-08-17T03:52:35;23.80;69.60
30520;DHT22;17300;50.374;8.006;2023-08-17T03:55:02;23.80;69.50
30520;DHT22;17300;50.374;8.006;2023-08-17T03:57:33;23.80;69.50
30520;DHT22;17300;50.374;8.006;2023-08-17T04:00:00;23.70;69.50
30520;DHT22;17300;50.374;8.006;2023-08-17T04:02:26;23.80;69.50
30520;DHT22;17300;50.374;8.006;2023-08-17T04:04:53;23.80;69.50
30520;DHT22;17300;50.374;8.006;2023-08-17T04:07:23;23.70;69.50
30520;DHT22;17300;50.374;8.006;2023-08-17T04:09:49;23.70;69.40
30520;DHT22;17300;50.374;8.006;2023-08-17T04:12:16;23.70;69.30
30520;DHT22;17300;50.374;8.006;2023-08-17T04:14:44;23.70;69.30
30520;DHT22;17300;50.374;8.006;2023-08-17T04:17:11;23.60;69.10
30520;DHT22;17300;50.374;8.006;2023-08-17T04:19:38;23.60;69.00
30520;DHT22;17300;50.374;8.006;2023-08-17T04:22:04;23.60;68.90
30520;DHT22;17300;50.374;8.006;2023-08-17T04:24:31;23.60;68.90
30520;DHT22;17300;50.374;8.006;2023-08-17T04:26:58;23.60;69.00
30520;DHT22;17300;50.374;8.006;2023-08-17T04:29:24;23.60;69.10
30520;DHT22;17300;50.374;8.006;2023-08-17T04:31:53;23.60;69.20
30520;DHT22;17300;50.374;8.006;2023-08-17T04:34:20;23.60;69.30
30520;DHT22;17300;50.374;8.006;2023-08-17T04:36:46;23.60;69.40
30520;DHT22;17300;50.374;8.006;2023-08-17T04:39:13;23.50;69.30
30520;DHT22;17300;50.374;8.006;2023-08-17T04:41:40;23.50;69.40
30520;DHT22;17300;50.374;8.006;2023-08-17T04:44:06;23.60;69.60
30520;DHT22;17300;50.374;8.006;2023-08-17T04:46:33;23.60;69.60
30520;DHT22;17300;50.374;8.006;2023-08-17T04:49:01;23.60;69.70
30520;DHT22;17300;50.374;8.006;2023-08-17T04:51:28;23.60;69.90
30520;DHT22;17300;50.374;8.006;2023-08-17T04:53:54;23.60;69.90
30520;DHT22;17300;50.374;8.006;2023-08-17T04:56:21;23.60;69.80
30520;DHT22;17300;50.374;8.006;2023-08-17T04:58:48;23.60;69.70
30520;DHT22;17300;50.374;8.006;2023-08-17T05:01:14;23.60;69.50
30520;DHT22;17300;50.374;8.006;2023-08-17T05:03:41;23.60;69.60
30520;DHT22;17300;50.374;8.006;2023-08-17T05:06:09;23.60;69.50
30520;DHT22;17300;50.374;8.006;2023-08-17T05:08:35;23.60;69.60
30520;DHT22;17300;50.374;8.006;2023-08-17T05:11:02;23.60;69.60
30520;DHT22;17300;50.374;8.006;2023-08-17T05:13:29;23.60;69.60
30520;DHT22;17300;50.374;8.006;2023-08-17T05:15:56;23.60;69.60
30520;DHT22;17300;50.374;8.006;2023-08-17T05:18:22;23.60;69.70
30520;DHT22;17300;50.374;8.006;2023-08-17T05:20:49;23.60;69.70
30520;DHT22;17300;50.374;8.006;2023-08-17T05:23:17;23.60;69.60
30520;DHT22;17300;50.374;8.006;2023-08-17T05:25:46;23.60;69.50
30520;DHT22;17300;50.374;8.006;2023-08-17T05:28:12;23.60;69.50
30520;DHT22;17300;50.374;8.006;2023-08-17T05:30:39;23.60;69.50
30520;DHT22;17300;50.374;8.006;2023-08-17T05:33:06;23.70;69.70
30520;DHT22;17300;50.374;8.006;2023-08-17T05:35:33;23.50;71.10
30520;DHT22;17300;50.374;8.006;2023-08-17T05:37:59;23.60;70.60
30520;DHT22;17300;50.374;8.006;2023-08-17T05:40:29;23.70;70.40
30520;DHT22;17300;50.374;8.006;2023-08-17T05:42:56;23.70;70.10
30520;DHT22;17300;50.374;8.006;2023-08-17T05:45:22;23.80;69.90
30520;DHT22;17300;50.374;8.006;2023-08-17T05:47:49;23.80;69.60
30520;DHT22;17300;50.374;8.006;2023-08-17T05:50:16;23.90;69.60
30520;DHT22;17300;50.374;8.006;2023-08-17T05:52:42;23.90;69.50
30520;DHT22;17300;50.374;8.006;2023-08-17T05:55:09;23.90;69.40
30520;DHT22;17300;50.374;8.006;2023-08-17T05:57:37;24.00;69.50
30520;DHT22;17300;50.374;8.006;2023-08-17T06:00:05;24.00;69.50
30520;DHT22;17300;50.374;8.006;2023-08-17T06:02:33;24.00;69.50
30520;DHT22;17300;50.374;8.006;2023-08-17T06:05:00;24.10;69.60
30520;DHT22;17300;50.374;8.006;2023-08-17T06:07:27;24.10;69.50
30520;DHT22;17300;50.374;8.006;2023-08-17T06:09:54;24.10;69.50
30520;DHT22;17300;50.374;8.006;2023-08-17T06:12:21;24.20;69.50
30520;DHT22;17300;50.374;8.006;2023-08-17T06:14:49;24.20;69.40
30520;DHT22;17300;50.374;8.006;2023-08-17T06:17:16;24.20;69.30
30520;DHT22;17300;50.374;8.006;2023-08-17T06:19:42;24.30;69.30
30520;DHT22;17300;50.374;8.006;2023-08-17T06:22:09;24.30;69.20
30520;DHT22;17300;50.374;8.006;2023-08-17T06:24:36;24.30;69.10
30520;DHT22;17300;50.374;8.006;2023-08-17T06:27:02;24.30;69.00
30520;DHT22;17300;50.374;8.006;2023-08-17T06:29:29;24.30;69.00
30520;DHT22;17300;50.374;8.006;2023-08-17T06:31:57;24.30;68.90
30520;DHT22;17300;50.374;8.006;2023-08-17T06:34:24;24.40;68.90
30520;DHT22;17300;50.374;8.006;2023-08-17T06:36:57;24.40;68.90
30520;DHT22;17300;50.374;8.006;2023-08-17T06:39:24;24.40;68.90
30520;DHT22;17300;50.374;8.006;2023-08-17T06:41:51;24.40;68.80
30520;DHT22;17300;50.374;8.006;2023-08-17T06:44:18;24.40;68.70
30520;DHT22;17300;50.374;8.006;2023-08-17T06:46:45;24.50;68.70
30520;DHT22;17300;50.374;8.006;2023-08-17T06:49:13;24.50;68.70
30520;DHT22;17300;50.374;8.006;2023-08-17T06:51:39;24.50;68.60
30520;DHT22;17300;50.374;8.006;2023-08-17T06:54:07;24.50;68.50
30520;DHT22;17300;50.374;8.006;2023-08-17T06:56:34;24.50;68.60
30520;DHT22;17300;50.374;8.006;2023-08-17T06:59:01;24.50;68.60
30520;DHT22;17300;50.374;8.006;2023-08-17T07:01:28;24.50;68.60
30520;DHT22;17300;50.374;8.006;2023-08-17T07:03:55;24.60;68.70
30520;DHT22;17300;50.374;8.006;2023-08-17T07:06:24;24.60;68.60
30520;DHT22;17300;50.374;8.006;2023-08-17T07:08:50;24.60;68.60
30520;DHT22;17300;50.374;8.006;2023-08-17T07:11:18;24.70;68.70
30520;DHT22;17300;50.374;8.006;2023-08-17T07:13:44;24.70;68.60
30520;DHT22;17300;50.374;8.006;2023-08-17T07:16:12;24.70;68.50
30520;DHT22;17300;50.374;8.006;2023-08-17T07:18:39;24.80;68.50
30520;DHT22;17300;50.374;8.006;2023-08-17T07:21:05;24.80;68.40
30520;DHT22;17300;50.374;8.006;2023-08-17T07:23:33;24.90;68.50
30520;DHT22;17300;50.374;8.006;2023-08-17T07:26:00;24.90;68.50
30520;DHT22;17300;50.374;8.006;2023-08-17T07:28:27;24.90;68.20
30520;DHT22;17300;50.374;8.006;2023-08-17T07:30:54;24.90;68.00
30520;DHT22;17300;50.374;8.006;2023-08-17T07:33:20;24.90;68.00
30520;DHT22;17300;50.374;8.006;2023-08-17T07:35:47;25.00;68.00
30520;DHT22;17300;50.374;8.006;2023-08-17T07:38:14;25.00;67.80
30520;DHT22;17300;50.374;8.006;2023-08-17T07:40:42;25.00;67.80
30520;DHT22;17300;50.374;8.006;2023-08-17T07:43:09;25.00;67.70
30520;DHT22;17300;50.374;8.006;2023-08-17T07:45:35;25.00;67.70
30520;DHT22;17300;50.374;8.006;2023-08-17T07:48:02;25.00;67.80
30520;DHT22;17300;50.374;8.006;2023-08-17T07:50:29;25.10;67.80
30520;DHT22;17300;50.374;8.006;2023-08-17T07:52:56;25.10;67.60
30520;DHT22;17300;50.374;8.006;2023-08-17T07:55:23;25.10;67.60
30520;DHT22;17300;50.374;8.006;2023-08-17T07:57:51;25.20;67.50
30520;DHT22;17300;50.374;8.006;2023-08-17T08:00:18;25.20;67.40
30520;DHT22;17300;50.374;8.006;2023-08-17T08:02:46;25.30;67.60
30520;DHT22;17300;50.374;8.006;2023-08-17T08:05:12;25.40;67.60
30520;DHT22;17300;50.374;8.006;2023-08-17T08:07:39;25.40;67.60
30520;DHT22;17300;50.374;8.006;2023-08-17T08:10:07;25.40;67.80
30520;DHT22;17300;50.374;8.006;2023-08-17T08:12:33;25.50;67.80
30520;DHT22;17300;50.374;8.006;2023-08-17T08:15:02;25.60;67.80
30520;DHT22;17300;50.374;8.006;2023-08-17T08:17:28;25.60;67.40
30520;DHT22;17300;50.374;8.006;2023-08-17T08:19:55;25.70;67.30
30520;DHT22;17300;50.374;8.006;2023-08-17T08:22:22;25.70;67.20
30520;DHT22;17300;50.374;8.006;2023-08-17T08:24:49;25.80;67.20
30520;DHT22;17300;50.374;8.006;2023-08-17T08:27:16;25.80;67.20
30520;DHT22;17300;50.374;8.006;2023-08-17T08:29:42;25.90;67.20
30520;DHT22;17300;50.374;8.006;2023-08-17T08:32:10;26.00;67.10
30520;DHT22;17300;50.374;8.006;2023-08-17T08:34:37;26.00;67.00
30520;DHT22;17300;50.374;8.006;2023-08-17T08:37:04;26.00;66.90
30520;DHT22;17300;50.374;8.006;2023-08-17T08:39:31;26.00;66.80
30520;DHT22;17300;50.374;8.006;2023-08-17T08:41:58;26.10;66.60
30520;DHT22;17300;50.374;8.006;2023-08-17T08:44:24;26.10;66.30
30520;DHT22;17300;50.374;8.006;2023-08-17T08:46:54;26.10;66.30
30520;DHT22;17300;50.374;8.006;2023-08-17T08:49:25;26.10;66.30
30520;DHT22;17300;50.374;8.006;2023-08-17T08:51:52;26.10;66.20
30520;DHT22;17300;50.374;8.006;2023-08-17T08:54:21;26.10;66.10
30520;DHT22;17300;50.374;8.006;2023-08-17T08:56:51;26.10;65.50
30520;DHT22;17300;50.374;8.006;2023-08-17T08:59:20;26.10;65.50
30520;DHT22;17300;50.374;8.006;2023-08-17T09:01:47;26.10;65.40
30520;DHT22;17300;50.374;8.006;2023-08-17T09:04:14;26.10;65.60
30520;DHT22;17300;50.374;8.006;2023-08-17T09:06:43;26.10;65.90
30520;DHT22;17300;50.374;8.006;2023-08-17T09:09:10;26.10;65.90
30520;DHT22;17300;50.374;8.006;2023-08-17T09:11:38;26.10;65.70
30520;DHT22;17300;50.374;8.006;2023-08-17T09:14:06;26.10;65.70
30520;DHT22;17300;50.374;8.006;2023-08-17T09:16:33;26.10;65.40
30520;DHT22;17300;50.374;8.006;2023-08-17T09:19:00;26.10;65.60
30520;DHT22;17300;50.374;8.006;2023-08-17T09:21:31;26.10;65.70
30520;DHT22;17300;50.374;8.006;2023-08-17T09:23:59;26.20;65.70
30520;DHT22;17300;50.374;8.006;2023-08-17T09:26:30;26.20;65.90
30520;DHT22;17300;50.374;8.006;2023-08-17T09:28:57;26.20;65.60
30520;DHT22;17300;50.374;8.006;2023-08-17T09:31:24;26.20;65.40
30520;DHT22;17300;50.374;8.006;2023-08-17T09:33:51;26.30;65.30
30520;DHT22;17300;50.374;8.006;2023-08-17T09:36:20;26.30;65.60
30520;DHT22;17300;50.374;8.006;2023-08-17T09:38:47;26.30;65.40
30520;DHT22;17300;50.374;8.006;2023-08-17T09:41:16;26.40;65.70
30520;DHT22;17300;50.374;8.006;2023-08-17T09:43:43;26.50;65.60
30520;DHT22;17300;50.374;8.006;2023-08-17T09:46:10;26.50;65.60
30520;DHT22;17300;50.374;8.006;2023-08-17T09:48:37;26.60;65.70
30520;DHT22;17300;50.374;8.006;2023-08-17T09:51:06;26.70;65.50
30520;DHT22;17300;50.374;8.006;2023-08-17T09:53:34;26.80;65.00
30520;DHT22;17300;50.374;8.006;2023-08-17T09:56:02;26.90;65.10
30520;DHT22;17300;50.374;8.006;2023-08-17T09:58:31;27.00;65.10
30520;DHT22;17300;50.374;8.006;2023-08-17T10:00:58;27.00;65.10
30520;DHT22;17300;50.374;8.006;2023-08-17T10:03:29;27.10;65.10
30520;DHT22;17300;50.374;8.006;2023-08-17T10:06:01;27.20;64.60
30520;DHT22;17300;50.374;8.006;2023-08-17T10:08:30;27.30;64.30
30520;DHT22;17300;50.374;8.006;2023-08-17T10:10:58;27.40;63.60
30520;DHT22;17300;50.374;8.006;2023-08-17T10:13:30;27.50;63.60
30520;DHT22;17300;50.374;8.006;2023-08-17T10:16:02;27.50;63.50
30520;DHT22;17300;50.374;8.006;2023-08-17T10:18:34;27.60;62.90
30520;DHT22;17300;50.374;8.006;2023-08-17T10:21:06;27.70;63.20
30520;DHT22;17300;50.374;8.006;2023-08-17T10:23:33;27.80;62.90
30520;DHT22;17300;50.374;8.006;2023-08-17T10:26:01;27.80;62.70
30520;DHT22;17300;50.374;8.006;2023-08-17T10:28:30;27.90;62.70
30520;DHT22;17300;50.374;8.006;2023-08-17T10:31:04;28.00;62.80
30520;DHT22;17300;50.374;8.006;2023-08-17T10:33:33;28.10;61.20
30520;DHT22;17300;50.374;8.006;2023-08-17T10:36:02;28.20;61.60
30520;DHT22;17300;50.374;8.006;2023-08-17T10:38:35;28.20;61.60
30520;DHT22;17300;50.374;8.006;2023-08-17T10:41:09;28.40;64.00
30520;DHT22;17300;50.374;8.006;2023-08-17T10:43:53;28.70;65.60
30520;DHT22;17300;50.374;8.006;2023-08-17T10:46:23;29.20;64.90
30520;DHT22;17300;50.374;8.006;2023-08-17T10:49:01;29.80;66.10
30520;DHT22;17300;50.374;8.006;2023-08-17T10:51:29;30.20;64.60
30520;DHT22;17300;50.374;8.006;2023-08-17T10:53:58;30.60;63.60
30520;DHT22;17300;50.374;8.006;2023-08-17T10:56:27;30.90;61.70
30520;DHT22;17300;50.374;8.006;2023-08-17T10:58:54;31.20;60.10
30520;DHT22;17300;50.374;8.006;2023-08-17T11:01:33;31.30;59.40
30520;DHT22;17300;50.374;8.006;2023-08-17T11:04:13;31.40;57.70
30520;DHT22;17300;50.374;8.006;2023-08-17T11:06:42;31.40;57.10
30520;DHT22;17300;50.374;8.006;2023-08-17T11:09:09;31.40;57.70
30520;DHT22;17300;50.374;8.006;2023-08-17T11:11:37;31.40;57.60
30520;DHT22;17300;50.374;8.006;2023-08-17T11:14:04;31.40;57.70
30520;DHT22;17300;50.374;8.006;2023-08-17T11:16:32;31.40;57.30
30520;DHT22;17300;50.374;8.006;2023-08-17T11:19:00;31.30;57.00
30520;DHT22;17300;50.374;8.006;2023-08-17T11:21:27;31.40;57.10
30520;DHT22;17300;50.374;8.006;2023-08-17T11:23:56;31.40;57.00
30520;DHT22;17300;50.374;8.006;2023-08-17T11:26:23;31.40;56.40
30520;DHT22;17300;50.374;8.006;2023-08-17T11:28:50;31.40;57.70
30520;DHT22;17300;50.374;8.006;2023-08-17T11:31:18;31.50;57.80
30520;DHT22;17300;50.374;8.006;2023-08-17T11:33:46;31.60;58.70
30520;DHT22;17300;50.374;8.006;2023-08-17T11:36:13;31.80;59.40
30520;DHT22;17300;50.374;8.006;2023-08-17T11:38:41;32.10;59.50
30520;DHT22;17300;50.374;8.006;2023-08-17T11:41:09;32.50;59.00
30520;DHT22;17300;50.374;8.006;2023-08-17T11:43:36;32.80;58.00
30520;DHT22;17300;50.374;8.006;2023-08-17T11:46:04;33.10;57.50
30520;DHT22;17300;50.374;8.006;2023-08-17T11:48:31;33.50;56.80
30520;DHT22;17300;50.374;8.006;2023-08-17T11:51:01;33.80;55.90
30520;DHT22;17300;50.374;8.006;2023-08-17T11:53:33;34.10;54.60
30520;DHT22;17300;50.374;8.006;2023-08-17T11:56:00;34.40;53.30
30520;DHT22;17300;50.374;8.006;2023-08-17T11:58:40;34.60;54.00
30520;DHT22;17300;50.374;8.006;2023-08-17T12:01:09;34.90;51.70
30520;DHT22;17300;50.374;8.006;2023-08-17T12:03:37;35.10;52.10
30520;DHT22;17300;50.374;8.006;2023-08-17T12:06:06;35.20;50.80
30520;DHT22;17300;50.374;8.006;2023-08-17T12:08:32;35.20;49.80
30520;DHT22;17300;50.374;8.006;2023-08-17T12:11:00;35.20;49.90
30520;DHT22;17300;50.374;8.006;2023-08-17T12:13:34;35.20;49.90
30520;DHT22;17300;50.374;8.006;2023-08-17T12:16:01;35.20;49.60
30520;DHT22;17300;50.374;8.006;2023-08-17T12:18:30;35.20;49.30
30520;DHT22;17300;50.374;8.006;2023-08-17T12:20:58;35.20;49.20
30520;DHT22;17300;50.374;8.006;2023-08-17T12:23:26;35.10;48.90
30520;DHT22;17300;50.374;8.006;2023-08-17T12:25:53;35.00;48.80
30520;DHT22;17300;50.374;8.006;2023-08-17T12:28:20;35.00;48.60
30520;DHT22;17300;50.374;8.006;2023-08-17T12:30:47;34.80;48.20
30520;DHT22;17300;50.374;8.006;2023-08-17T12:33:13;34.70;48.00
30520;DHT22;17300;50.374;8.006;2023-08-17T12:35:40;34.50;47.70
30520;DHT22;17300;50.374;8.006;2023-08-17T12:38:07;34.30;48.20
30520;DHT22;17300;50.374;8.006;2023-08-17T12:40:35;34.20;48.00
30520;DHT22;17300;50.374;8.006;2023-08-17T12:43:02;33.90;47.80
30520;DHT22;17300;50.374;8.006;2023-08-17T12:45:29;33.80;47.70
30520;DHT22;17300;50.374;8.006;2023-08-17T12:47:56;33.60;48.00
30520;DHT22;17300;50.374;8.006;2023-08-17T12:50:23;33.30;48.20
30520;DHT22;17300;50.374;8.006;2023-08-17T12:52:52;33.10;48.10
30520;DHT22;17300;50.374;8.006;2023-08-17T12:55:19;33.00;48.00
30520;DHT22;17300;50.374;8.006;2023-08-17T12:57:47;32.80;48.40
30520;DHT22;17300;50.374;8.006;2023-08-17T13:00:15;32.60;48.80
30520;DHT22;17300;50.374;8.006;2023-08-17T13:02:41;32.40;49.60
30520;DHT22;17300;50.374;8.006;2023-08-17T13:05:10;32.30;49.20
30520;DHT22;17300;50.374;8.006;2023-08-17T13:07:36;32.10;49.40
30520;DHT22;17300;50.374;8.006;2023-08-17T13:10:02;31.90;49.40
30520;DHT22;17300;50.374;8.006;2023-08-17T13:12:29;31.70;49.60
30520;DHT22;17300;50.374;8.006;2023-08-17T13:14:57;31.50;50.00
30520;DHT22;17300;50.374;8.006;2023-08-17T13:17:27;31.40;50.80
30520;DHT22;17300;50.374;8.006;2023-08-17T13:19:55;31.30;51.10
30520;DHT22;17300;50.374;8.006;2023-08-17T13:22:39;31.20;51.10
30520;DHT22;17300;50.374;8.006;2023-08-17T13:25:06;31.10;51.00
30520;DHT22;17300;50.374;8.006;2023-08-17T13:27:34;30.90;51.00
30520;DHT22;17300;50.374;8.006;2023-08-17T13:30:02;30.90;51.10
30520;DHT22;17300;50.374;8.006;2023-08-17T13:32:31;30.80;51.20
30520;DHT22;17300;50.374;8.006;2023-08-17T13:34:58;30.80;51.70
30520;DHT22;17300;50.374;8.006;2023-08-17T13:37:24;30.70;51.90
30520;DHT22;17300;50.374;8.006;2023-08-17T13:39:51;30.70;52.30
30520;DHT22;17300;50.374;8.006;2023-08-17T13:42:18;30.60;51.90
30520;DHT22;17300;50.374;8.006;2023-08-17T13:44:45;30.60;52.00
30520;DHT22;17300;50.374;8.006;2023-08-17T13:47:13;30.50;52.10
30520;DHT22;17300;50.374;8.006;2023-08-17T13:49:39;30.50;52.50
30520;DHT22;17300;50.374;8.006;2023-08-17T13:52:06;30.50;52.50
30520;DHT22;17300;50.374;8.006;2023-08-17T13:54:33;30.40;52.50
30520;DHT22;17300;50.374;8.006;2023-08-17T13:56:59;30.40;52.70
30520;DHT22;17300;50.374;8.006;2023-08-17T13:59:26;30.40;52.80
30520;DHT22;17300;50.374;8.006;2023-08-17T14:01:53;30.40;53.20
30520;DHT22;17300;50.374;8.006;2023-08-17T14:04:22;30.40;53.20
30520;DHT22;17300;50.374;8.006;2023-08-17T14:06:49;30.40;52.90
30520;DHT22;17300;50.374;8.006;2023-08-17T14:09:16;30.40;52.90
30520;DHT22;17300;50.374;8.006;2023-08-17T14:11:43;30.40;52.70
30520;DHT22;17300;50.374;8.006;2023-08-17T14:14:10;30.30;52.70
30520;DHT22;17300;50.374;8.006;2023-08-17T14:16:36;30.20;52.70
30520;DHT22;17300;50.374;8.006;2023-08-17T14:19:03;30.20;52.80
30520;DHT22;17300;50.374;8.006;2023-08-17T14:21:31;30.20;52.90
30520;DHT22;17300;50.374;8.006;2023-08-17T14:23:58;30.10;52.80
30520;DHT22;17300;50.374;8.006;2023-08-17T14:26:25;30.00;52.80
30520;DHT22;17300;50.374;8.006;2023-08-17T14:28:51;29.90;52.90
30520;DHT22;17300;50.374;8.006;2023-08-17T14:31:18;29.90;53.40
30520;DHT22;17300;50.374;8.006;2023-08-17T14:33:47;29.80;53.50
30520;DHT22;17300;50.374;8.006;2023-08-17T14:36:14;29.80;53.80
30520;DHT22;17300;50.374;8.006;2023-08-17T14:38:42;29.80;53.90
30520;DHT22;17300;50.374;8.006;2023-08-17T14:41:09;29.80;54.10
30520;DHT22;17300;50.374;8.006;2023-08-17T14:43:36;29.90;54.10
30520;DHT22;17300;50.374;8.006;2023-08-17T14:46:03;29.90;53.80
30520;DHT22;17300;50.374;8.006;2023-08-17T14:48:29;30.00;53.90
30520;DHT22;17300;50.374;8.006;2023-08-17T14:50:56;30.00;53.90
30520;DHT22;17300;50.374;8.006;2023-08-17T14:53:23;30.10;53.90
30520;DHT22;17300;50.374;8.006;2023-08-17T14:55:51;30.10;53.90
30520;DHT22;17300;50.374;8.006;2023-08-17T14:58:17;30.20;53.90
30520;DHT22;17300;50.374;8.006;2023-08-17T15:00:44;30.20;53.90
30520;DHT22;17300;50.374;8.006;2023-08-17T15:03:11;30.20;53.70
30520;DHT22;17300;50.374;8.006;2023-08-17T15:05:37;30.20;53.80
30520;DHT22;17300;50.374;8.006;2023-08-17T15:08:05;30.20;53.70
30520;DHT22;17300;50.374;8.006;2023-08-17T15:10:32;30.20;53.60
30520;DHT22;17300;50.374;8.006;2023-08-17T15:13:01;30.20;53.50
30520;DHT22;17300;50.374;8.006;2023-08-17T15:15:28;30.10;53.40
30520;DHT22;17300;50.374;8.006;2023-08-17T15:17:54;30.10;53.40
30520;DHT22;17300;50.374;8.006;2023-08-17T15:20:21;30.00;53.30
30520;DHT22;17300;50.374;8.006;2023-08-17T15:22:48;30.00;53.50
30520;DHT22;17300;50.374;8.006;2023-08-17T15:25:15;29.90;53.40
30520;DHT22;17300;50.374;8.006;2023-08-17T15:27:41;29.80;53.50
30520;DHT22;17300;50.374;8.006;2023-08-17T15:30:10;29.80;53.30
30520;DHT22;17300;50.374;8.006;2023-08-17T15:32:37;29.70;53.50